Data for 12/01/2005

Time Sea-Level Adjusted Pressure Absolute Pressure Temperature Relative Humidity Dew Point   
(mb) (inHg) (mb) (inHg) (C) (F) (%) (C) (F)
00:05 1015 29.97 845 24.95 -7 19.4 59 -13.7 7.3
00:10 1015 29.97 845 24.95 -7 19.4 58 -13.9 7
00:15 1015 29.97 845 24.95 -6.9 19.5 60 -13.5 7.7
00:20 1015 29.97 845 24.95 -7.7 18.1 63 -13.7 7.4
00:25 1015 29.97 845 24.95 -8 17.7 64 -13.7 7.3
00:30 1015 29.97 844 24.92 -7.7 18.2 61 -13.9 7
00:35 1015 29.97 844 24.92 -7.7 18.2 61 -13.9 7
00:40 1015 29.97 844 24.92 -7.7 18.1 61 -14 6.8
00:45 1015 29.97 844 24.92 -7.6 18.2 63 -13.6 7.5
00:50 1015 29.97 844 24.92 -7.6 18.4 64 -13.3 8.1
00:55 1015 29.97 844 24.92 -7.6 18.3 63 -13.5 7.6
01:00 1015 29.97 844 24.92 -7.6 18.3 61 -13.8 7.1
01:05 1015 29.97 844 24.92 -7.5 18.5 60 -14 6.7
01:10 1015 29.97 844 24.92 -7.6 18.3 60 -14.1 6.6
01:15 1015 29.97 844 24.92 -7.7 18.1 61 -14.1 6.7
01:20 1015 29.97 844 24.92 -7.5 18.4 60 -14 6.8
01:25 1015 29.97 844 24.92 -7.4 18.7 59 -14.1 6.7
01:30 1015 29.97 844 24.92 -7.4 18.7 61 -13.6 7.5
01:35 1015 29.97 844 24.92 -7.9 17.7 65 -13.4 7.9
01:40 1015 29.97 844 24.92 -8.6 16.4 70 -13.2 8.3
01:45 1015 29.97 844 24.92 -8.6 16.6 69 -13.2 8.2
01:50 1014 29.94 844 24.92 -8.4 16.9 69 -13.1 8.5
01:55 1014 29.94 844 24.92 -8.7 16.4 70 -13.1 8.4
02:00 1014 29.94 843 24.89 -8.8 16.2 71 -13.1 8.5
02:05 1014 29.94 843 24.89 -9.1 15.7 72 -13.2 8.2
02:10 1014 29.94 843 24.89 -8.9 15.9 72 -13.1 8.5
02:15 1014 29.94 843 24.89 -8.7 16.3 71 -13.1 8.5
02:20 1014 29.94 843 24.89 -8.8 16.1 69 -13.5 7.7
02:25 1014 29.94 843 24.89 -8.8 16.2 67 -13.8 7.1
02:30 1014 29.94 843 24.89 -8.5 16.8 65 -13.8 7.1
02:35 1014 29.94 843 24.89 -8.5 16.7 66 -13.7 7.3
02:40 1014 29.94 843 24.89 -8.9 16 69 -13.6 7.5
02:45 1014 29.94 844 24.92 -9.1 15.6 70 -13.5 7.6
02:50 1014 29.94 843 24.89 -9.1 15.6 69 -13.7 7.3
02:55 1014 29.94 843 24.89 -8.8 16.2 67 -13.8 7.2
03:00 1014 29.94 843 24.89 -8.2 17.2 63 -14 6.8
03:05 1014 29.94 843 24.89 -8 17.7 63 -13.8 7.2
03:10 1014 29.94 843 24.89 -8.4 16.9 66 -13.7 7.4
03:15 1014 29.94 843 24.89 -8.7 16.4 67 -13.7 7.4
03:20 1014 29.94 843 24.89 -9 15.8 70 -13.5 7.6
03:25 1014 29.94 843 24.89 -9.5 14.9 71 -13.8 7.2
03:30 1014 29.94 843 24.89 -9.8 14.3 72 -13.9 7
03:35 1014 29.94 843 24.89 -9.8 14.4 72 -13.9 6.9
03:40 1014 29.94 843 24.89 -9.7 14.5 74 -13.6 7.5
03:45 1014 29.94 843 24.89 -10 14 74 -13.9 7
03:50 1014 29.94 843 24.89 -9.6 14.7 69 -14.2 6.4
03:55 1014 29.94 843 24.89 -9.1 15.6 70 -13.7 7.3
04:00 1014 29.94 843 24.89 -9.2 15.5 72 -13.4 7.9
04:05 1014 29.94 843 24.89 -9.2 15.5 72 -13.3 8.1
04:10 1014 29.94 843 24.89 -9.5 14.9 74 -13.3 8.1
04:15 1014 29.94 843 24.89 -9.6 14.7 74 -13.4 7.8
04:20 1013 29.91 843 24.89 -10.2 13.6 77 -13.6 7.6
04:25 1013 29.91 843 24.89 -10.2 13.6 76 -13.6 7.4
04:30 1013 29.91 843 24.89 -10.1 13.9 76 -13.6 7.6
04:35 1013 29.91 842 24.86 -10.1 13.8 78 -13.3 8
04:40 1013 29.91 842 24.86 -9.9 14.1 77 -13.3 8
04:45 1013 29.91 842 24.86 -9.9 14.2 77 -13.2 8.3
04:50 1013 29.91 842 24.86 -9.8 14.4 78 -13 8.6
04:55 1013 29.91 842 24.86 -9.9 14.2 78 -13 8.6
05:00 1013 29.91 842 24.86 -10 14.1 78 -13.1 8.4
05:05 1013 29.91 842 24.86 -9.7 14.5 76 -13.2 8.2
05:10 1013 29.91 842 24.86 -9.6 14.8 76 -13.1 8.4
05:15 1013 29.91 842 24.86 -9.6 14.6 76 -13.1 8.4
05:20 1013 29.91 842 24.86 -9.6 14.7 76 -13.1 8.5
05:25 1013 29.91 842 24.86 -9.8 14.5 76 -13.2 8.3
05:30 1013 29.91 842 24.86 -9.9 14.2 77 -13.2 8.3
05:35 1013 29.91 842 24.86 -9.8 14.3 77 -13.1 8.4
05:40 1013 29.91 842 24.86 -9.7 14.6 76 -13.1 8.4
05:45 1013 29.91 842 24.86 -9.4 15 75 -13.1 8.5
05:50 1013 29.91 842 24.86 -9.7 14.5 77 -13 8.6
05:55 1013 29.91 842 24.86 -9.8 14.4 76 -13.2 8.2
06:00 1013 29.91 842 24.86 -9.8 14.4 76 -13.2 8.2
06:05 1013 29.91 842 24.86 -9.6 14.8 75 -13.2 8.3
06:10 1013 29.91 842 24.86 -9.3 15.2 74 -13.1 8.5
06:15 1013 29.91 842 24.86 -9.1 15.7 73 -13 8.6
06:20 1013 29.91 842 24.86 -9.2 15.5 75 -12.9 8.8
06:25 1013 29.91 842 24.86 -9.3 15.2 75 -13 8.5
06:30 1012 29.88 842 24.86 -9.4 15.1 75 -13.1 8.5
06:35 1012 29.88 842 24.86 -9.5 15 75 -13 8.6
06:40 1012 29.88 842 24.86 -9.5 15 76 -13 8.5
06:45 1012 29.88 842 24.86 -9.3 15.3 75 -12.9 8.8
06:50 1012 29.88 842 24.86 -9.2 15.5 75 -12.8 9
06:55 1012 29.88 842 24.86 -9.1 15.7 75 -12.8 9
07:00 1012 29.88 842 24.86 -9 15.7 74 -12.9 8.8
07:05 1012 29.88 842 24.86 -9.1 15.7 74 -13 8.6
07:10 1012 29.88 842 24.86 -9.1 15.6 73 -13.1 8.5
07:15 1013 29.91 842 24.86 -9 15.7 73 -13 8.6
07:20 1013 29.91 842 24.86 -8.9 16 73 -13 8.7
07:25 1013 29.91 842 24.86 -8.8 16.3 72 -12.9 8.7
07:30 1013 29.91 842 24.86 -8.8 16.1 72 -13.1 8.5
07:35 1013 29.91 842 24.86 -8.9 16.1 73 -12.9 8.8
07:40 1012 29.88 842 24.86 -8.9 16 73 -12.8 8.9
07:45 1013 29.91 842 24.86 -8.8 16.1 72 -13 8.5
07:50 1013 29.91 842 24.86 -8.6 16.5 70 -13.1 8.5
07:55 1013 29.91 842 24.86 -8.6 16.6 72 -12.7 9.1
08:00 1013 29.91 842 24.86 -8.4 16.8 72 -12.6 9.2
08:05 1013 29.91 842 24.86 -8.4 16.9 71 -12.8 9
08:10 1013 29.91 842 24.86 -8.4 16.9 70 -12.9 8.7
08:15 1013 29.91 842 24.86 -8.3 17.1 69 -13 8.6
08:20 1013 29.91 842 24.86 -8.2 17.3 70 -12.7 9.1
08:25 1012 29.88 842 24.86 -8.3 17.2 71 -12.7 9.1
08:30 1012 29.88 842 24.86 -8.4 16.8 71 -12.7 9.1
08:35 1013 29.91 842 24.86 -8.4 16.9 71 -12.7 9.1
08:40 1013 29.91 842 24.86 -8.4 16.9 72 -12.6 9.4
08:45 1013 29.91 842 24.86 -8.4 16.9 72 -12.6 9.4
08:50 1013 29.91 842 24.86 -8.2 17.2 71 -12.6 9.4
08:55 1013 29.91 842 24.86 -8.1 17.5 70 -12.6 9.2
09:00 1013 29.91 842 24.86 -7.9 17.8 70 -12.5 9.5
09:05 1013 29.91 842 24.86 -7.8 18 69 -12.5 9.5
09:10 1012 29.88 842 24.86 -7.5 18.5 70 -12.1 10.2
09:15 1013 29.91 842 24.86 -7.4 18.7 68 -12.3 9.8
09:20 1013 29.91 842 24.86 -7.5 18.5 69 -12.3 9.9
09:25 1012 29.88 842 24.86 -7.2 19 70 -11.8 10.7
09:30 1012 29.88 842 24.86 -7 19.4 68 -11.9 10.6
09:35 1012 29.88 842 24.86 -7.1 19.3 67 -12.1 10.1
09:40 1013 29.91 842 24.86 -7 19.4 68 -12 10.4
09:45 1013 29.91 842 24.86 -6.6 20.2 63 -12.5 9.4
09:50 1013 29.91 842 24.86 -6.3 20.7 62 -12.5 9.6
09:55 1013 29.91 842 24.86 -5.9 21.4 63 -11.9 10.6
10:00 1013 29.91 842 24.86 -5.8 21.6 63 -11.7 10.9
10:05 1013 29.91 842 24.86 -5.9 21.4 64 -11.6 11.2
10:10 1012 29.88 842 24.86 -5.9 21.5 66 -11.3 11.7
10:15 1012 29.88 842 24.86 -6.1 21.1 68 -11.1 12
10:20 1012 29.88 842 24.86 -6.3 20.7 64 -12 10.4
10:25 1012 29.88 842 24.86 -6.1 20.9 63 -12 10.4
10:30 1012 29.88 841 24.83 -6 21.2 63 -11.9 10.6
10:35 1012 29.88 841 24.83 -6.4 20.5 65 -12 10.4
10:40 1012 29.88 841 24.83 -5.5 22.1 61 -11.9 10.6
10:45 1012 29.88 841 24.83 -5 23 60 -11.7 10.9
10:50 1011 29.85 841 24.83 -5.6 21.9 62 -11.8 10.7
10:55 1011 29.85 840 24.81 -5.8 21.5 63 -11.8 10.7
11:00 1011 29.85 840 24.81 -6.3 20.7 64 -12 10.5
11:05 1011 29.85 840 24.81 -6.5 20.3 63 -12.4 9.8
11:10 1011 29.85 840 24.81 -6.7 20 66 -12 10.5
11:15 1011 29.85 840 24.81 -6.7 20 66 -12.1 10.3
11:20 1011 29.85 840 24.81 -6.7 19.9 67 -11.9 10.7
11:25 1011 29.85 840 24.81 -6.6 20.1 66 -12 10.4
11:30 1011 29.85 840 24.81 -6.6 20.2 67 -11.7 10.9
11:35 1011 29.85 840 24.81 -6.4 20.6 67 -11.4 11.4
11:40 1011 29.85 840 24.81 -6.4 20.5 68 -11.4 11.5
11:45 1011 29.85 840 24.81 -6.7 19.9 67 -11.9 10.5
11:50 1011 29.85 840 24.81 -6.8 19.7 66 -12.1 10.3
11:55 1011 29.85 840 24.81 -6.8 19.7 67 -11.9 10.6
12:00 1011 29.85 840 24.81 -6.4 20.5 66 -11.7 10.9
12:05 1011 29.85 840 24.81 -6.1 20.9 66 -11.4 11.4
12:10 1011 29.85 840 24.81 -6.5 20.2 63 -12.4 9.7
12:15 1011 29.85 840 24.81 -6.9 19.5 64 -12.7 9.1
12:20 1011 29.85 840 24.81 -7 19.4 67 -12.2 10
12:25 1011 29.85 840 24.81 -6.8 19.8 64 -12.4 9.7
12:30 1010 29.83 840 24.81 -6.7 19.9 67 -11.8 10.7
12:35 1010 29.83 840 24.81 -6.8 19.7 68 -11.8 10.8
12:40 1010 29.83 840 24.81 -7 19.5 66 -12.2 10
12:45 1010 29.83 839 24.78 -7.3 18.8 66 -12.6 9.3
12:50 1010 29.83 839 24.78 -7.6 18.3 68 -12.6 9.3
12:55 1010 29.83 839 24.78 -7.8 18.1 70 -12.3 9.9
13:00 1010 29.83 839 24.78 -8.1 17.4 70 -12.6 9.3
13:05 1009 29.8 839 24.78 -8.6 16.4 72 -12.8 9
13:10 1009 29.8 838 24.75 -8.8 16.1 74 -12.7 9.1
13:15 1009 29.8 839 24.78 -8.9 15.9 73 -13 8.7
13:20 1009 29.8 839 24.78 -9.1 15.6 74 -12.9 8.8
13:25 1009 29.8 839 24.78 -9 15.8 74 -12.9 8.9
13:30 1009 29.8 839 24.78 -9.1 15.6 73 -13.2 8.2
13:35 1009 29.8 839 24.78 -9.3 15.2 74 -13.2 8.3
13:40 1009 29.8 838 24.75 -9.3 15.3 74 -13.1 8.5
13:45 1009 29.8 838 24.75 -9.2 15.5 73 -13.1 8.4
13:50 1009 29.8 838 24.75 -9.1 15.5 73 -13.1 8.3
13:55 1009 29.8 838 24.75 -9.2 15.4 74 -13 8.5
14:00 1009 29.8 838 24.75 -9.4 15.1 73 -13.4 7.9
14:05 1009 29.8 838 24.75 -9.8 14.3 74 -13.6 7.6
14:10 1009 29.8 838 24.75 -10.1 13.9 75 -13.7 7.4
14:15 1009 29.8 838 24.75 -10.3 13.4 76 -13.8 7.1
14:20 1009 29.8 838 24.75 -10.4 13.3 76 -13.8 7.1
14:25 1009 29.8 838 24.75 -10.5 13.2 76 -13.9 7.1
14:30 1009 29.8 838 24.75 -10.6 12.9 77 -14 6.8
14:35 1009 29.8 838 24.75 -10.8 12.6 77 -14.1 6.6
14:40 1009 29.8 838 24.75 -10.8 12.5 76 -14.2 6.4
14:45 1008 29.77 838 24.75 -11.1 12.1 77 -14.4 6.1
14:50 1008 29.77 838 24.75 -11.2 11.9 77 -14.5 6
14:55 1008 29.77 838 24.75 -11.2 11.9 77 -14.5 5.9
15:00 1008 29.77 838 24.75 -11.1 12 77 -14.4 6.1
15:05 1008 29.77 837 24.72 -11 12.3 76 -14.5 6
15:10 1008 29.77 837 24.72 -10.9 12.4 76 -14.3 6.2
15:15 1008 29.77 837 24.72 -10.8 12.5 75 -14.3 6.2
15:20 1008 29.77 837 24.72 -11 12.1 77 -14.3 6.2
15:25 1008 29.77 837 24.72 -11.2 11.9 77 -14.5 6
15:30 1008 29.77 837 24.72 -11.4 11.6 77 -14.6 5.7
15:35 1008 29.77 837 24.72 -11.5 11.4 78 -14.6 5.8
15:40 1008 29.77 837 24.72 -11.5 11.3 77 -14.8 5.4
15:45 1008 29.77 837 24.72 -11.6 11.2 78 -14.7 5.5
15:50 1007 29.74 837 24.72 -11.7 10.9 77 -15 5.1
15:55 1007 29.74 837 24.72 -12 10.5 78 -15.1 4.8
16:00 1007 29.74 837 24.72 -12 10.4 78 -15.2 4.7
16:05 1008 29.77 837 24.72 -12.1 10.2 78 -15.2 4.7
16:10 1007 29.74 837 24.72 -12.1 10.2 78 -15.2 4.6
16:15 1007 29.74 837 24.72 -12 10.3 78 -15.2 4.7
16:20 1007 29.74 837 24.72 -12.1 10.2 78 -15.2 4.7
16:25 1007 29.74 836 24.69 -12.2 10 79 -15.2 4.6
16:30 1007 29.74 836 24.69 -12.3 9.8 78 -15.3 4.4
16:35 1007 29.74 836 24.69 -12.4 9.8 79 -15.3 4.5
16:40 1007 29.74 836 24.69 -12.5 9.5 80 -15.3 4.5
16:45 1007 29.74 836 24.69 -12.4 9.6 80 -15.1 4.8
16:50 1007 29.74 836 24.69 -12.4 9.6 81 -15.1 4.8
16:55 1007 29.74 836 24.69 -12.3 9.8 80 -15.1 4.8
17:00 1007 29.74 836 24.69 -12.5 9.6 80 -15.2 4.7
17:05 1007 29.74 836 24.69 -12.4 9.7 81 -15 5
17:10 1007 29.74 836 24.69 -12.3 9.8 81 -15 5
17:15 1007 29.74 836 24.69 -12.3 9.9 82 -14.8 5.4
17:20 1006 29.71 835 24.66 -12.3 9.9 82 -14.8 5.4
17:25 1006 29.71 835 24.66 -12.2 10 82 -14.6 5.6
17:30 1006 29.71 836 24.69 -12.3 9.8 84 -14.6 5.8
17:35 1006 29.71 835 24.66 -12.3 9.8 84 -14.5 6
17:40 1006 29.71 835 24.66 -12.5 9.6 84 -14.7 5.5
17:45 1006 29.71 835 24.66 -12.4 9.6 82 -14.9 5.2
17:50 1006 29.71 835 24.66 -12.4 9.6 81 -15.1 4.9
17:55 1006 29.71 835 24.66 -12.5 9.5 80 -15.2 4.6
18:00 1006 29.71 835 24.66 -12.6 9.4 80 -15.3 4.4
18:05 1006 29.71 835 24.66 -12.5 9.4 80 -15.4 4.4
18:10 1006 29.71 835 24.66 -12.6 9.3 80 -15.4 4.2
18:15 1006 29.71 835 24.66 -12.6 9.3 79 -15.6 4
18:20 1005 29.68 835 24.66 -12.6 9.4 78 -15.6 3.8
18:25 1005 29.68 835 24.66 -12.5 9.6 78 -15.5 4
18:30 1005 29.68 835 24.66 -12.5 9.5 77 -15.7 3.8
18:35 1005 29.68 834 24.63 -12.5 9.5 76 -15.8 3.5
18:40 1005 29.68 834 24.63 -12.5 9.6 76 -15.8 3.5
18:45 1005 29.68 834 24.63 -12.5 9.5 77 -15.7 3.7
18:50 1005 29.68 834 24.63 -12.6 9.4 77 -15.8 3.6
18:55 1005 29.68 834 24.63 -12.6 9.4 76 -15.9 3.4
19:00 1005 29.68 834 24.63 -12.7 9.2 77 -15.9 3.4
19:05 1005 29.68 834 24.63 -12.8 9 77 -16 3.2
19:10 1005 29.68 834 24.63 -12.9 8.7 77 -16.1 3
19:15 1005 29.68 834 24.63 -13 8.6 78 -16 3.1
19:20 1005 29.68 834 24.63 -13 8.6 78 -16 3.1
19:25 1005 29.68 834 24.63 -12.9 8.8 77 -16.1 3.1
19:30 1005 29.68 834 24.63 -13 8.6 77 -16.3 2.7
19:35 1005 29.68 834 24.63 -13 8.6 77 -16.2 2.8
19:40 1005 29.68 834 24.63 -13.1 8.4 77 -16.3 2.6
19:45 1004 29.65 834 24.63 -13.2 8.3 77 -16.4 2.4
19:50 1004 29.65 834 24.63 -13.1 8.5 77 -16.4 2.5
19:55 1004 29.65 833 24.6 -13.1 8.4 77 -16.3 2.6
20:00 1005 29.68 834 24.63 -13.2 8.2 77 -16.4 2.5
20:05 1004 29.65 833 24.6 -13.3 8.1 77 -16.5 2.3
20:10 1004 29.65 833 24.6 -13.3 8.1 78 -16.4 2.5
20:15 1004 29.65 834 24.63 -13.3 8.1 77 -16.5 2.3
20:20 1004 29.65 833 24.6 -13.5 7.8 78 -16.5 2.3
20:25 1004 29.65 833 24.6 -13.5 7.7 78 -16.6 2.1
20:30 1004 29.65 833 24.6 -13.7 7.3 78 -16.7 1.9
20:35 1004 29.65 833 24.6 -13.7 7.3 78 -16.8 1.8
20:40 1004 29.65 834 24.63 -13.7 7.3 78 -16.8 1.8
20:45 1004 29.65 833 24.6 -13.8 7.1 77 -17 1.4
20:50 1004 29.65 833 24.6 -13.9 7 78 -16.9 1.6
20:55 1004 29.65 833 24.6 -13.8 7.2 78 -16.8 1.7
21:00 1004 29.65 833 24.6 -13.8 7.2 78 -16.9 1.6
21:05 1004 29.65 834 24.63 -13.9 7 78 -17 1.4
21:10 1004 29.65 833 24.6 -13.8 7.1 78 -16.9 1.6
21:15 1004 29.65 833 24.6 -13.7 7.4 78 -16.7 1.9
21:20 1004 29.65 833 24.6 -13.7 7.4 77 -16.9 1.7
21:25 1004 29.65 833 24.6 -13.8 7.2 78 -16.9 1.6
21:30 1004 29.65 833 24.6 -13.9 7 78 -17 1.4
21:35 1004 29.65 833 24.6 -13.9 7 78 -17 1.4
21:40 1004 29.65 833 24.6 -13.9 7 77 -17.1 1.3
21:45 1004 29.65 833 24.6 -13.9 7 77 -17.1 1.3
21:50 1003 29.62 833 24.6 -13.9 7 78 -17 1.5
21:55 1004 29.65 833 24.6 -13.9 7.1 77 -17 1.4
22:00 1004 29.65 833 24.6 -13.9 7 78 -17 1.4
22:05 1004 29.65 833 24.6 -13.9 7 78 -17 1.5
22:10 1003 29.62 833 24.6 -13.9 6.9 78 -17 1.3
22:15 1004 29.65 833 24.6 -13.9 7 79 -16.9 1.6
22:20 1004 29.65 833 24.6 -13.8 7.1 77 -17 1.5
22:25 1003 29.62 833 24.6 -14.1 6.7 78 -17.1 1.3
22:30 1003 29.62 833 24.6 -14.2 6.5 80 -17 1.5
22:35 1003 29.62 833 24.6 -14 6.7 79 -16.9 1.6
22:40 1003 29.62 832 24.57 -14 6.8 79 -16.8 1.7
22:45 1003 29.62 832 24.57 -13.8 7.2 79 -16.6 2.1
22:50 1003 29.62 832 24.57 -13.7 7.4 78 -16.8 1.8
22:55 1003 29.62 832 24.57 -13.7 7.4 79 -16.6 2.1
23:00 1003 29.62 832 24.57 -13.6 7.6 77 -16.7 1.9
23:05 1003 29.62 832 24.57 -13.7 7.4 77 -16.8 1.7
23:10 1003 29.62 832 24.57 -13.6 7.6 76 -16.9 1.5
23:15 1003 29.62 832 24.57 -13.6 7.6 77 -16.9 1.6
23:20 1003 29.62 832 24.57 -13.6 7.6 77 -16.8 1.8
23:25 1002 29.59 832 24.57 -13.5 7.7 77 -16.7 1.9
23:30 1002 29.59 831 24.54 -13.5 7.7 75 -17 1.4
23:35 1002 29.59 832 24.57 -13.6 7.6 77 -16.8 1.7
23:40 1002 29.59 832 24.57 -13.5 7.7 77 -16.8 1.8
23:45 1002 29.59 831 24.54 -13.6 7.6 76 -17 1.4
23:50 1002 29.59 831 24.54 -13.7 7.3 77 -16.9 1.5
23:55 1002 29.59 831 24.54 -13.6 7.6 77 -16.7 1.9
24:00 1002 29.59 831 24.54 -13.5 7.7 78 -16.6 2.1